createdAt,value
2022-08-12T00:01:15.726Z,4.38
2022-08-12T00:04:05.005Z,5.38
2022-08-12T00:06:53.014Z,5.22
2022-08-12T00:09:38.903Z,5.35
2022-08-12T00:12:24.676Z,4.82
2022-08-12T00:15:09.874Z,4.63
2022-08-12T00:17:55.679Z,4.90
2022-08-12T00:20:41.253Z,4.95
2022-08-12T00:23:26.850Z,4.93
2022-08-12T00:26:23.294Z,5.40
2022-08-12T00:29:12.811Z,4.53
2022-08-12T00:32:00.129Z,5.00
2022-08-12T00:34:49.267Z,5.17
2022-08-12T00:37:36.546Z,4.70
2022-08-12T00:40:28.872Z,4.88
2022-08-12T00:42:57.550Z,4.47
2022-08-12T00:45:24.645Z,4.87
2022-08-12T00:47:54.036Z,4.43
2022-08-12T00:50:23.005Z,4.63
2022-08-12T00:52:52.972Z,4.82
2022-08-12T00:55:20.518Z,4.27
2022-08-12T00:57:50.438Z,5.05
2022-08-12T01:00:24.857Z,4.63
2022-08-12T01:02:58.139Z,4.43
2022-08-12T01:05:45.881Z,4.10
2022-08-12T01:08:32.411Z,4.70
2022-08-12T01:11:18.119Z,5.00
2022-08-12T01:13:49.999Z,4.70
2022-08-12T01:16:22.580Z,4.80
2022-08-12T01:18:53.563Z,5.03
2022-08-12T01:22:18.634Z,4.67
2022-08-12T01:24:56.381Z,5.37
2022-08-12T01:27:24.528Z,4.90
2022-08-12T01:29:55.603Z,5.03
2022-08-12T01:32:27.422Z,5.10
2022-08-12T01:35:12.001Z,5.43
2022-08-12T01:38:14.522Z,4.83
2022-08-12T01:40:47.135Z,4.73
2022-08-12T01:43:21.523Z,4.60
2022-08-12T01:46:22.632Z,4.53
2022-08-12T01:48:59.984Z,5.10
2022-08-12T01:52:15.860Z,4.73
2022-08-12T01:54:44.614Z,4.77
2022-08-12T01:57:59.438Z,4.50
2022-08-12T02:00:20.657Z,4.70
2022-08-12T02:03:22.332Z,4.03
2022-08-12T02:06:36.064Z,4.10
2022-08-12T02:09:23.130Z,4.80
2022-08-12T02:12:08.858Z,4.20
2022-08-12T02:15:17.873Z,4.43
2022-08-12T02:18:15.247Z,4.60
2022-08-12T02:21:16.573Z,4.53
2022-08-12T02:23:43.628Z,4.80
2022-08-12T02:26:16.971Z,4.87
2022-08-12T02:28:45.099Z,4.57
2022-08-12T02:31:13.092Z,4.70
2022-08-12T02:33:41.479Z,4.93
2022-08-12T02:36:08.654Z,4.40
2022-08-12T02:38:37.631Z,4.57
2022-08-12T02:41:06.868Z,4.73
2022-08-12T02:43:56.096Z,4.90
2022-08-12T02:46:32.816Z,4.60
2022-08-12T02:49:32.393Z,5.00
2022-08-12T02:52:01.426Z,4.67
2022-08-12T02:54:53.957Z,4.30
2022-08-12T02:57:25.277Z,4.77
2022-08-12T02:59:54.195Z,4.63
2022-08-12T03:02:27.455Z,4.87
2022-08-12T03:05:01.926Z,4.30
2022-08-12T03:07:56.252Z,4.70
2022-08-12T03:10:37.740Z,4.50
2022-08-12T03:13:13.092Z,4.60
2022-08-12T03:15:50.470Z,4.93
2022-08-12T03:18:33.762Z,5.00
2022-08-12T03:21:05.554Z,4.60
2022-08-12T03:28:51.827Z,4.30
2022-08-12T03:31:24.583Z,4.00
2022-08-12T03:34:01.520Z,4.23
2022-08-12T03:36:36.020Z,4.87
2022-08-12T03:39:16.800Z,4.90
2022-08-12T03:42:49.306Z,5.03
2022-08-12T03:45:51.965Z,5.17
2022-08-12T03:48:46.787Z,5.03
2022-08-12T03:52:02.416Z,5.03
2022-08-12T03:54:53.195Z,4.97
2022-08-12T04:03:58.584Z,5.17
2022-08-12T04:06:43.895Z,4.70
2022-08-12T04:09:14.754Z,5.30
2022-08-12T04:12:05.401Z,4.70
2022-08-12T04:14:54.179Z,5.60
2022-08-12T04:17:30.845Z,5.13
2022-08-12T04:20:04.524Z,5.40
2022-08-12T04:22:37.013Z,6.07
2022-08-12T04:25:27.498Z,5.57
2022-08-12T04:28:19.512Z,5.37
2022-08-12T04:31:09.410Z,5.13
2022-08-12T04:33:46.826Z,6.13
2022-08-12T04:36:35.414Z,5.90
2022-08-12T04:39:18.636Z,5.47
2022-08-12T04:42:07.069Z,5.23
2022-08-12T04:44:54.997Z,5.60
2022-08-12T04:47:36.714Z,6.40
2022-08-12T04:53:06.439Z,6.70
2022-08-12T04:55:50.364Z,4.63
2022-08-12T04:58:29.197Z,4.97
2022-08-12T05:01:03.723Z,5.33
2022-08-12T05:03:45.836Z,5.13
2022-08-12T05:06:27.095Z,5.17
2022-08-12T05:11:57.755Z,5.47
2022-08-12T05:14:35.626Z,5.57
2022-08-12T05:17:12.801Z,5.63
2022-08-12T05:20:02.783Z,6.67
2022-08-12T05:22:44.674Z,6.70
2022-08-12T05:25:44.083Z,6.77
2022-08-12T05:28:25.209Z,5.97
2022-08-12T05:35:07.117Z,5.83
2022-08-12T05:40:46.022Z,5.60
2022-08-12T05:43:32.482Z,5.55
2022-08-12T05:46:04.728Z,4.57
2022-08-12T05:48:59.285Z,4.80
2022-08-12T05:51:43.368Z,4.78
2022-08-12T05:54:47.378Z,4.60
2022-08-12T06:00:20.518Z,4.85
2022-08-12T06:03:05.324Z,5.28
2022-08-12T06:05:43.210Z,4.50
2022-08-12T06:08:28.635Z,4.57
2022-08-12T06:11:15.211Z,4.70
2022-08-12T06:13:54.046Z,4.50
2022-08-12T06:16:40.251Z,5.25
2022-08-12T06:20:26.732Z,4.45
2022-08-12T06:22:27.552Z,4.38
2022-08-12T06:25:06.684Z,4.32
2022-08-12T06:28:19.472Z,4.45
2022-08-12T06:35:19.275Z,4.55
2022-08-12T06:36:50.201Z,4.53
2022-08-12T06:39:53.168Z,4.82
2022-08-12T06:42:52.232Z,5.05
2022-08-12T06:45:52.831Z,5.13
2022-08-12T06:48:29.993Z,4.65
2022-08-12T06:51:10.946Z,4.80
2022-08-12T06:53:52.831Z,4.85
2022-08-12T06:56:20.523Z,5.07
2022-08-12T06:58:48.866Z,5.00
2022-08-12T07:01:21.683Z,4.80
2022-08-12T07:04:37.779Z,5.20
2022-08-12T07:07:23.563Z,5.72
2022-08-12T07:10:04.945Z,5.50
2022-08-12T07:13:01.691Z,5.43
2022-08-12T07:15:32.564Z,5.28
2022-08-12T07:18:22.279Z,4.63
2022-08-12T07:20:54.932Z,5.25
2022-08-12T07:23:35.075Z,5.18
2022-08-12T07:26:07.443Z,5.18
2022-08-12T07:28:41.752Z,4.95
2022-08-12T07:31:12.086Z,5.18
2022-08-12T07:34:07.994Z,4.88
2022-08-12T07:36:46.805Z,5.05
2022-08-12T07:39:19.024Z,5.03
2022-08-12T07:41:59.870Z,5.55
2022-08-12T07:44:26.930Z,5.35
2022-08-12T07:47:01.102Z,5.32
2022-08-12T07:49:32.377Z,4.68
2022-08-12T07:52:20.494Z,5.25
2022-08-12T07:54:48.138Z,5.53
2022-08-12T07:57:15.464Z,5.20
2022-08-12T07:59:56.498Z,5.25
2022-08-12T08:02:27.997Z,4.55
2022-08-12T08:05:10.919Z,4.45
2022-08-12T08:07:46.267Z,4.63
2022-08-12T08:10:26.306Z,5.60
2022-08-12T08:16:07.882Z,3.95
2022-08-12T08:18:35.956Z,4.28
2022-08-12T08:21:12.470Z,4.20
2022-08-12T08:24:05.039Z,4.35
2022-08-12T08:29:26.338Z,4.47
2022-08-12T08:32:01.937Z,4.85
2022-08-12T08:34:54.017Z,4.20
2022-08-12T08:37:37.207Z,4.10
2022-08-12T08:43:50.840Z,3.97
2022-08-12T08:46:20.370Z,3.60
2022-08-12T08:49:12.841Z,3.85
2022-08-12T08:51:46.193Z,3.85
2022-08-12T08:54:19.225Z,3.95
2022-08-12T08:56:50.194Z,3.72
2022-08-12T08:59:36.597Z,4.00
2022-08-12T09:05:14.884Z,3.90
2022-08-12T09:08:14.221Z,3.47
2022-08-12T09:10:56.363Z,3.78
2022-08-12T09:14:11.530Z,3.70
2022-08-12T09:16:26.782Z,3.67
2022-08-12T09:19:00.592Z,3.47
2022-08-12T09:24:30.144Z,3.78
2022-08-12T09:30:42.485Z,3.33
2022-08-12T09:33:14.698Z,3.10
2022-08-12T09:36:04.497Z,3.40
2022-08-12T09:38:36.915Z,3.15
2022-08-12T09:42:09.198Z,3.42
2022-08-12T09:44:38.445Z,2.70
2022-08-12T09:47:10.989Z,2.90
2022-08-12T09:49:44.785Z,2.90
2022-08-12T09:52:15.478Z,2.85
2022-08-12T09:54:59.813Z,2.70
2022-08-12T09:58:45.863Z,2.55
2022-08-12T10:00:28.922Z,3.08
2022-08-12T10:03:32.476Z,2.95
2022-08-12T10:09:28.949Z,2.83
2022-08-12T10:12:35.477Z,2.88
2022-08-12T10:15:15.488Z,2.75
2022-08-12T10:21:07.269Z,2.92
2022-08-12T10:23:48.620Z,2.88
2022-08-12T10:26:43.196Z,3.33
2022-08-12T10:30:38.359Z,2.70
2022-08-12T10:32:58.621Z,3.03
2022-08-12T10:35:38.364Z,2.72
2022-08-12T10:38:33.966Z,2.65
2022-08-12T10:41:19.233Z,2.63
2022-08-12T10:43:56.757Z,2.95
2022-08-12T10:46:30.270Z,2.88
2022-08-12T10:50:02.357Z,3.10
2022-08-12T10:52:32.982Z,2.67
2022-08-12T10:58:28.362Z,2.60
2022-08-12T11:01:50.500Z,2.95
2022-08-12T11:04:31.670Z,2.78
2022-08-12T11:07:06.014Z,3.00
2022-08-12T11:10:00.305Z,2.90
2022-08-12T11:12:59.431Z,2.70
2022-08-12T11:16:19.477Z,2.72
2022-08-12T11:18:24.207Z,2.80
2022-08-12T11:20:57.788Z,3.28
2022-08-12T11:23:36.893Z,3.42
2022-08-12T11:26:18.264Z,3.05
2022-08-12T11:28:50.435Z,3.33
2022-08-12T11:32:02.089Z,2.88
2022-08-12T11:34:52.876Z,3.90
2022-08-12T11:37:25.341Z,3.38
2022-08-12T11:43:17.190Z,2.83
2022-08-12T11:45:46.970Z,2.92
2022-08-12T11:48:27.067Z,3.22
2022-08-12T11:51:00.310Z,2.83
2022-08-12T11:53:56.574Z,3.30
2022-08-12T11:56:22.002Z,3.28
2022-08-12T12:02:07.280Z,2.88
2022-08-12T12:04:53.770Z,3.30
2022-08-12T12:08:36.473Z,3.03
2022-08-12T12:10:28.452Z,3.20
2022-08-12T12:12:58.113Z,2.80
2022-08-12T12:18:39.307Z,3.00
2022-08-12T12:21:18.035Z,3.00
2022-08-12T12:24:10.991Z,3.00
2022-08-12T12:26:41.224Z,3.28
2022-08-12T12:30:13.408Z,3.20
2022-08-12T12:32:17.248Z,3.58
2022-08-12T12:35:14.021Z,3.00
2022-08-12T12:38:05.636Z,3.00
2022-08-12T12:40:44.278Z,2.67
2022-08-12T12:43:29.110Z,2.70
2022-08-12T12:46:19.114Z,2.80
2022-08-12T12:48:48.954Z,2.65
2022-08-12T12:51:58.099Z,3.03
2022-08-12T12:54:18.879Z,2.72
2022-08-12T12:56:57.211Z,2.70
2022-08-12T12:59:55.296Z,2.80
2022-08-12T13:02:32.112Z,2.45
2022-08-12T13:05:02.788Z,2.75
2022-08-12T13:07:54.437Z,2.50
2022-08-12T13:10:32.105Z,3.00
2022-08-12T13:14:10.560Z,3.03
2022-08-12T13:16:14.294Z,2.40
2022-08-12T13:18:58.696Z,2.80
2022-08-12T13:22:41.128Z,2.42
2022-08-12T13:25:24.758Z,2.22
2022-08-12T13:28:28.598Z,2.30
2022-08-12T13:32:17.543Z,2.70
2022-08-12T13:34:38.448Z,2.47
2022-08-12T13:37:12.213Z,2.50
2022-08-12T13:40:01.184Z,2.35
2022-08-12T13:42:52.964Z,3.10
2022-08-12T13:45:49.295Z,2.47
2022-08-12T13:48:31.203Z,2.50
2022-08-12T13:51:04.283Z,2.22
2022-08-12T13:53:58.354Z,2.22
2022-08-12T13:56:35.261Z,2.50
2022-08-12T13:59:19.724Z,2.40
2022-08-12T14:01:59.617Z,2.53
2022-08-12T14:04:56.160Z,2.65
2022-08-12T14:07:45.964Z,2.90
2022-08-12T14:10:50.563Z,2.47
2022-08-12T14:14:05.908Z,2.58
2022-08-12T14:16:52.009Z,2.50
2022-08-12T14:19:38.108Z,2.75
2022-08-12T14:22:20.198Z,3.03
2022-08-12T14:24:59.380Z,2.80
2022-08-12T14:28:03.379Z,2.20
2022-08-12T14:30:29.171Z,2.92
2022-08-12T14:33:03.157Z,2.78
2022-08-12T14:35:41.348Z,2.42
2022-08-12T14:38:25.882Z,2.58
2022-08-12T14:41:02.931Z,2.30
2022-08-12T14:43:59.114Z,2.10
2022-08-12T14:46:31.025Z,2.30
2022-08-12T14:49:11.489Z,2.40
2022-08-12T14:52:55.966Z,2.28
2022-08-12T14:58:01.623Z,2.15
2022-08-12T15:00:53.694Z,2.70
2022-08-12T15:03:52.779Z,2.10
2022-08-12T15:06:44.340Z,2.05
2022-08-12T15:09:29.300Z,2.20
2022-08-12T15:12:03.407Z,2.80
2022-08-12T15:14:58.279Z,2.42
2022-08-12T15:17:52.441Z,2.20
2022-08-12T15:20:42.666Z,2.33
2022-08-12T15:23:17.418Z,2.28
2022-08-12T15:25:59.856Z,2.17
2022-08-12T15:28:35.800Z,2.30
2022-08-12T15:31:21.216Z,2.00
2022-08-12T15:33:54.643Z,2.13
2022-08-12T15:36:54.980Z,2.72
2022-08-12T15:40:00.861Z,2.30
2022-08-12T15:42:40.610Z,2.42
2022-08-12T15:45:10.339Z,2.20
2022-08-12T15:48:16.267Z,2.00
2022-08-12T15:50:53.046Z,2.80
2022-08-12T15:53:53.364Z,2.55
2022-08-12T15:56:29.115Z,2.72
2022-08-12T15:59:10.475Z,2.35
2022-08-12T16:01:45.464Z,2.40
2022-08-12T16:04:25.738Z,2.50
2022-08-12T16:07:09.031Z,2.53
2022-08-12T16:10:04.790Z,2.28
2022-08-12T16:12:36.097Z,2.70
2022-08-12T16:15:07.292Z,2.40
2022-08-12T16:18:19.038Z,2.40
2022-08-12T16:20:46.940Z,2.40
2022-08-12T16:23:36.184Z,2.42
2022-08-12T16:26:21.674Z,2.50
2022-08-12T16:28:57.040Z,2.58
2022-08-12T16:31:50.891Z,2.63
2022-08-12T16:34:25.837Z,2.80
2022-08-12T16:38:24.555Z,2.33
2022-08-12T16:40:13.250Z,2.80
2022-08-12T16:43:02.271Z,2.85
2022-08-12T16:46:05.051Z,2.50
2022-08-12T16:48:42.538Z,2.75
2022-08-12T16:51:46.325Z,2.47
2022-08-12T16:54:26.473Z,2.20
2022-08-12T16:56:58.458Z,2.40
2022-08-12T16:59:30.758Z,2.88
2022-08-12T17:02:33.802Z,2.53
2022-08-12T17:05:15.066Z,2.40
2022-08-12T17:07:52.508Z,2.97
2022-08-12T17:10:35.918Z,2.70
2022-08-12T17:13:09.966Z,2.63
2022-08-12T17:15:57.073Z,2.53
2022-08-12T17:18:42.527Z,2.60
2022-08-12T17:21:41.006Z,2.80
2022-08-12T17:24:21.440Z,2.70
2022-08-12T17:26:54.035Z,2.60
2022-08-12T17:30:00.868Z,2.17
2022-08-12T17:32:28.122Z,2.90
2022-08-12T17:35:16.065Z,3.47
2022-08-12T17:37:54.658Z,3.38
2022-08-12T17:40:36.272Z,2.55
2022-08-12T17:43:51.876Z,2.70
2022-08-12T17:45:58.708Z,2.67
2022-08-12T17:48:34.317Z,2.63
2022-08-12T17:51:15.548Z,2.85
2022-08-12T17:54:10.827Z,2.80
2022-08-12T17:56:37.122Z,2.83
2022-08-12T17:59:04.139Z,2.75
2022-08-12T18:01:36.545Z,3.08
2022-08-12T18:04:22.442Z,3.20
2022-08-12T18:06:52.839Z,3.15
2022-08-12T18:09:32.324Z,2.63
2022-08-12T18:12:24.718Z,2.90
2022-08-12T18:15:09.095Z,2.65
2022-08-12T18:17:44.740Z,3.10
2022-08-12T18:20:16.410Z,2.78
2022-08-12T18:22:46.221Z,3.35
2022-08-12T18:26:13.986Z,2.95
2022-08-12T18:28:27.505Z,3.22
2022-08-12T18:31:02.243Z,3.05
2022-08-12T18:33:41.699Z,2.70
2022-08-12T18:36:13.041Z,3.20
2022-08-12T18:38:44.824Z,3.08
2022-08-12T18:41:35.861Z,2.90
2022-08-12T18:44:09.807Z,2.90
2022-08-12T18:46:56.690Z,3.25
2022-08-12T18:49:37.969Z,2.92
2022-08-12T18:52:08.216Z,5.72
2022-08-12T18:54:48.863Z,2.97
2022-08-12T18:58:07.128Z,2.65
2022-08-12T19:00:18.809Z,2.92
2022-08-12T19:02:51.820Z,3.10
2022-08-12T19:05:18.702Z,3.38
2022-08-12T19:08:00.091Z,3.00
2022-08-12T19:10:31.274Z,3.05
2022-08-12T19:13:24.205Z,3.15
2022-08-12T19:15:57.960Z,3.00
2022-08-12T19:18:29.807Z,3.08
2022-08-12T19:21:11.931Z,3.40
2022-08-12T19:23:43.629Z,3.20
2022-08-12T19:26:12.555Z,3.10
2022-08-12T19:28:41.073Z,3.08
2022-08-12T19:31:45.169Z,3.10
2022-08-12T19:38:03.021Z,3.10
2022-08-12T19:40:32.761Z,3.28
2022-08-12T19:43:19.635Z,3.13
2022-08-12T19:45:51.227Z,3.05
2022-08-12T19:48:21.555Z,2.90
2022-08-12T19:50:53.278Z,2.65
2022-08-12T19:53:23.371Z,3.10
2022-08-12T19:55:55.739Z,3.38
2022-08-12T19:58:26.822Z,3.45
2022-08-12T20:00:55.977Z,3.60
2022-08-12T20:03:39.246Z,3.40
2022-08-12T20:06:13.819Z,3.25
2022-08-12T20:08:49.065Z,3.70
2022-08-12T20:12:11.678Z,3.85
2022-08-12T20:14:17.911Z,3.00
2022-08-12T20:16:51.926Z,3.65
2022-08-12T20:19:22.502Z,3.30
2022-08-12T20:21:50.785Z,3.20
2022-08-12T20:24:19.082Z,2.92
2022-08-12T20:26:46.830Z,3.35
2022-08-12T20:29:16.610Z,3.05
2022-08-12T20:31:44.161Z,3.10
2022-08-12T20:34:12.237Z,2.67
2022-08-12T20:36:44.300Z,2.60
2022-08-12T20:39:34.006Z,2.70
2022-08-12T20:42:07.658Z,2.60
2022-08-12T20:44:39.891Z,2.47
2022-08-12T20:47:19.547Z,2.80
2022-08-12T20:49:55.455Z,2.53
2022-08-12T20:52:29.842Z,2.60
2022-08-12T20:54:57.945Z,2.13
2022-08-12T20:57:25.296Z,2.50
2022-08-12T21:00:19.289Z,3.10
2022-08-12T21:02:49.989Z,2.92
2022-08-12T21:06:09.677Z,2.42
2022-08-12T21:08:26.434Z,2.50
2022-08-12T21:10:54.576Z,2.30
2022-08-12T21:13:26.843Z,2.42
2022-08-12T21:15:59.898Z,2.40
2022-08-12T21:18:29.115Z,2.30
2022-08-12T21:20:59.013Z,2.63
2022-08-12T21:23:31.118Z,2.40
2022-08-12T21:26:06.032Z,2.80
2022-08-12T21:28:38.515Z,2.35
2022-08-12T21:32:36.232Z,2.28
2022-08-12T21:34:08.726Z,2.15
2022-08-12T21:36:48.526Z,2.35
2022-08-12T21:39:35.645Z,2.70
2022-08-12T21:42:06.967Z,2.50
2022-08-12T21:45:46.180Z,2.25
2022-08-12T21:47:24.305Z,2.83
2022-08-12T21:50:02.848Z,4.30
2022-08-12T21:52:40.475Z,4.65
2022-08-12T21:55:17.799Z,3.60
2022-08-12T21:57:54.946Z,4.00
2022-08-12T22:00:34.266Z,2.50
2022-08-12T22:04:07.999Z,2.53
2022-08-12T22:06:30.453Z,4.32
2022-08-12T22:09:15.333Z,4.45
2022-08-12T22:11:56.375Z,2.53
2022-08-12T22:14:29.042Z,2.30
2022-08-12T22:16:58.513Z,2.88
2022-08-12T22:19:26.949Z,3.90
2022-08-12T22:21:56.092Z,4.70
2022-08-12T22:24:29.865Z,2.72
2022-08-12T22:27:17.947Z,2.30
2022-08-12T22:30:09.504Z,2.30
2022-08-12T22:32:50.241Z,3.15
2022-08-12T22:35:56.022Z,3.15
2022-08-12T22:38:26.263Z,3.33
2022-08-12T22:41:00.864Z,5.90
2022-08-12T22:44:00.370Z,3.40
2022-08-12T22:46:37.192Z,4.40
2022-08-12T22:49:06.720Z,2.83
2022-08-12T22:51:57.395Z,2.45
2022-08-12T22:54:36.411Z,2.38
2022-08-12T22:57:11.954Z,2.20
2022-08-12T22:59:55.622Z,2.30
2022-08-12T23:02:39.189Z,2.00
2022-08-12T23:05:06.650Z,2.60
2022-08-12T23:07:59.763Z,2.30
2022-08-12T23:10:27.423Z,2.47
2022-08-12T23:13:13.078Z,2.80
2022-08-12T23:15:41.307Z,2.47
2022-08-12T23:18:16.804Z,2.65
2022-08-12T23:20:44.718Z,2.35
2022-08-12T23:23:17.250Z,2.53
2022-08-12T23:25:55.497Z,2.50
2022-08-12T23:28:42.309Z,2.38
2022-08-12T23:31:09.908Z,2.80
2022-08-12T23:34:00.531Z,2.50
2022-08-12T23:36:38.964Z,3.13
2022-08-12T23:40:15.529Z,3.60
2022-08-12T23:42:17.700Z,3.35
2022-08-12T23:44:48.693Z,3.75
2022-08-12T23:47:21.334Z,3.20
2022-08-12T23:49:57.269Z,4.03
2022-08-12T23:52:34.460Z,3.53
2022-08-12T23:55:23.571Z,3.13
2022-08-12T23:58:17.352Z,2.72
